createdAt,value
2022-08-17T00:02:53.609Z,14.5
2022-08-17T00:17:21.711Z,14.2
2022-08-17T00:31:50.823Z,14
2022-08-17T00:46:18.501Z,14.3
2022-08-17T01:00:46.612Z,14.1
2022-08-17T01:15:13.108Z,14.1
2022-08-17T01:29:38.348Z,14.3
2022-08-17T01:44:06.423Z,13.9
2022-08-17T01:58:34.183Z,14.1
2022-08-17T02:12:59.433Z,14.1
2022-08-17T02:27:26.730Z,14.2
2022-08-17T02:41:54.057Z,14.2
2022-08-17T02:56:22.066Z,14.1
2022-08-17T03:10:49.771Z,14
2022-08-17T03:25:22.998Z,14.1
2022-08-17T03:54:15.407Z,14.1
2022-08-17T04:08:43.130Z,14
2022-08-17T04:23:13.241Z,14.1
2022-08-17T04:37:41.408Z,13.9
2022-08-17T04:52:54.352Z,14.2
2022-08-17T05:07:00.781Z,14.2
2022-08-17T05:21:28.176Z,14.4
2022-08-17T05:35:57.013Z,14.7
2022-08-17T05:50:31.664Z,15
2022-08-17T06:05:00.866Z,15
2022-08-17T06:19:25.240Z,15.1
2022-08-17T06:33:54.226Z,15.5
2022-08-17T06:48:22.045Z,15.1
2022-08-17T07:02:53.858Z,15.2
2022-08-17T07:17:19.133Z,15.1
2022-08-17T07:31:47.619Z,15.8
2022-08-17T07:46:20.155Z,15.4
2022-08-17T08:00:49.109Z,15.1
2022-08-17T08:15:14.616Z,15.5
2022-08-17T08:29:43.889Z,15.1
2022-08-17T08:44:09.624Z,15.4
2022-08-17T08:58:43.229Z,15.3
2022-08-17T09:13:11.771Z,15.5
2022-08-17T09:27:35.463Z,15.3
2022-08-17T09:42:02.411Z,15
2022-08-17T09:56:29.954Z,15.4
2022-08-17T10:10:57.639Z,15.5
2022-08-17T10:25:56.245Z,15.4
2022-08-17T10:40:10.826Z,14.8
2022-08-17T10:54:38.002Z,15
2022-08-17T11:09:13.079Z,14.9
2022-08-17T11:23:37.268Z,15.2
2022-08-17T11:38:17.061Z,15.6
2022-08-17T11:52:41.073Z,15.2
2022-08-17T12:07:08.136Z,15.4
2022-08-17T12:21:36.086Z,15.3
2022-08-17T12:36:06.709Z,15.5
2022-08-17T12:50:36.335Z,15.3
2022-08-17T13:05:03.049Z,15.3
2022-08-17T13:19:41.875Z,15.2
2022-08-17T13:34:11.487Z,15
2022-08-17T13:48:40.019Z,15.3
2022-08-17T14:03:02.397Z,14.9
2022-08-17T14:17:39.627Z,14.8
2022-08-17T14:32:06.690Z,15.2
2022-08-17T14:46:37.281Z,15.7
2022-08-17T15:01:04.774Z,15.6
2022-08-17T15:15:29.292Z,16
2022-08-17T15:29:57.890Z,15.8
2022-08-17T15:44:35.600Z,16
2022-08-17T15:58:58.469Z,16.2
2022-08-17T16:13:24.668Z,16
2022-08-17T16:27:53.972Z,16.6
2022-08-17T16:42:19.863Z,16.7
2022-08-17T16:56:46.341Z,16.7
2022-08-17T17:11:13.484Z,16.6
2022-08-17T17:25:38.801Z,16.7
2022-08-17T17:40:06.316Z,16.7
2022-08-17T17:54:33.392Z,16.5
2022-08-17T18:09:01.059Z,16.6
2022-08-17T18:23:29.179Z,17
2022-08-17T18:38:00.193Z,17.2
2022-08-17T18:52:28.769Z,17
2022-08-17T19:06:51.282Z,17
2022-08-17T19:21:18.548Z,17.1
2022-08-17T19:35:45.783Z,17.1
2022-08-17T19:50:18.706Z,17.1
2022-08-17T20:04:46.561Z,17.1
2022-08-17T20:19:08.628Z,17.1
2022-08-17T20:33:35.609Z,17
2022-08-17T20:48:40.800Z,17
2022-08-17T21:02:48.850Z,16.9
2022-08-17T21:17:12.802Z,17
2022-08-17T21:31:47.823Z,17.1
2022-08-17T21:46:15.702Z,17.1
2022-08-17T22:00:45.482Z,17
2022-08-17T22:15:13.764Z,17
2022-08-17T22:29:38.071Z,16.9
2022-08-17T22:43:59.613Z,17
2022-08-17T22:58:26.299Z,16.9
2022-08-17T23:12:53.339Z,17.1
2022-08-17T23:27:20.590Z,16.9
2022-08-17T23:41:48.683Z,17
2022-08-17T23:56:22.512Z,16.8
